Time;durP1;ratioP1;P1;durP2;ratioP2;P2;SDS_P1;SDS_P2;PMS_P1;PMS_P2;Temp;Humidity;BMP_temperature;BMP_pressure;BME280_temperature;BME280_humidity;BME280_pressure;Samples;Min_cycle;Max_cycle;Signal;HPM_P1;HPM_P2
2022/12/02 00:00:54;;;;;;;30.93;18.23;;;3.90;99.90;;;;;;4995633;28;20179;-86
2022/12/02 00:03:23;;;;;;;29.90;17.63;;;3.90;99.90;;;;;;5012210;28;20176;-86
2022/12/02 00:05:54;;;;;;;27.70;16.90;;;3.90;99.90;;;;;;4995667;28;20297;-86
2022/12/02 00:08:22;;;;;;;32.60;19.03;;;3.90;99.90;;;;;;5008623;28;20176;-86
2022/12/02 00:10:50;;;;;;;34.83;19.23;;;3.90;99.90;;;;;;4992627;28;20176;-86
2022/12/02 00:13:42;;;;;;;30.00;17.03;;;3.90;99.90;;;;;;5004521;28;20179;-86
2022/12/02 00:16:26;;;;;;;32.63;18.00;;;3.90;99.90;;;;;;5012193;28;20194;-86
2022/12/02 00:18:53;;;;;;;31.63;17.37;;;4.00;99.90;;;;;;4995396;28;20203;-86
2022/12/02 00:21:20;;;;;;;32.77;18.97;;;4.00;99.90;;;;;;5011663;28;20171;-86
2022/12/02 00:23:46;;;;;;;31.20;17.80;;;4.00;99.90;;;;;;4995558;28;20183;-86
2022/12/02 00:26:12;;;;;;;33.33;18.50;;;4.00;99.90;;;;;;4994839;28;20199;-86
2022/12/02 00:28:38;;;;;;;33.73;19.60;;;4.00;99.90;;;;;;4995046;28;20246;-86
2022/12/02 00:31:04;;;;;;;35.80;19.67;;;3.90;99.90;;;;;;5011759;28;20218;-86
2022/12/02 00:33:30;;;;;;;35.93;20.10;;;3.90;99.90;;;;;;5011709;28;20195;-86
2022/12/02 00:35:56;;;;;;;38.23;19.97;;;3.90;99.90;;;;;;4995216;28;20270;-86
2022/12/02 00:38:22;;;;;;;36.33;20.33;;;3.90;99.90;;;;;;4994967;28;20183;-86
2022/12/02 00:40:48;;;;;;;37.63;20.20;;;3.90;99.90;;;;;;5011974;28;20222;-86
2022/12/02 00:48:42;;;;;;;40.80;20.83;;;3.90;99.90;;;;;;5011638;28;20167;-86
2022/12/02 00:51:09;;;;;;;37.77;20.47;;;3.90;99.90;;;;;;5012791;28;20175;-86
2022/12/02 00:53:34;;;;;;;41.77;22.17;;;3.90;99.90;;;;;;5006419;28;20222;-86
2022/12/02 00:56:01;;;;;;;41.03;21.80;;;3.90;99.90;;;;;;4975743;28;20207;-86
2022/12/02 00:58:27;;;;;;;43.00;22.23;;;3.80;99.90;;;;;;4975050;28;20188;-86
2022/12/02 01:00:53;;;;;;;42.13;22.53;;;3.80;99.90;;;;;;4975553;28;20215;-86
2022/12/02 01:03:19;;;;;;;42.97;22.47;;;3.80;99.90;;;;;;5008153;28;20183;-86
2022/12/02 01:05:44;;;;;;;39.13;21.33;;;3.80;99.90;;;;;;5000505;28;20207;-86
2022/12/02 01:08:10;;;;;;;36.90;19.93;;;3.80;99.90;;;;;;4995043;28;20179;-86
2022/12/02 01:10:43;;;;;;;40.30;21.10;;;3.80;99.90;;;;;;4995031;28;20245;-86
2022/12/02 01:13:09;;;;;;;38.00;20.93;;;3.80;99.90;;;;;;4995379;28;20179;-86
2022/12/02 01:15:35;;;;;;;42.67;21.53;;;3.80;99.90;;;;;;5011268;28;20257;-86
2022/12/02 01:18:01;;;;;;;37.43;20.03;;;3.80;99.90;;;;;;5011553;28;20218;-86
2022/12/02 01:20:27;;;;;;;38.07;19.93;;;3.80;99.90;;;;;;5011149;28;20219;-86
2022/12/02 01:22:53;;;;;;;39.57;21.10;;;3.80;99.90;;;;;;4994947;28;20179;-86
2022/12/02 01:25:18;;;;;;;38.40;20.90;;;3.80;99.90;;;;;;4995020;28;20214;-86
2022/12/02 01:27:44;;;;;;;38.43;19.70;;;3.80;99.90;;;;;;4994905;28;20263;-86
2022/12/02 01:30:11;;;;;;;36.53;19.97;;;3.80;99.90;;;;;;4984778;28;20184;-86
2022/12/02 01:32:37;;;;;;;36.80;20.33;;;3.80;99.90;;;;;;4991830;28;20238;-86
2022/12/02 01:35:03;;;;;;;38.27;20.10;;;3.80;99.90;;;;;;5000404;28;20183;-86
2022/12/02 01:37:29;;;;;;;40.50;20.73;;;3.80;99.90;;;;;;4995072;28;20214;-86
2022/12/02 01:39:54;;;;;;;38.43;20.40;;;3.80;99.90;;;;;;4998372;28;20206;-86
2022/12/02 01:42:21;;;;;;;39.53;20.33;;;3.80;99.90;;;;;;4998263;28;20179;-86
2022/12/02 01:44:47;;;;;;;37.70;20.50;;;3.80;99.90;;;;;;5014857;28;20175;-86
2022/12/02 01:47:13;;;;;;;40.40;21.43;;;3.80;99.90;;;;;;4997993;28;20202;-86
2022/12/02 01:49:39;;;;;;;42.47;21.20;;;3.80;99.90;;;;;;4997627;28;20183;-86
2022/12/02 01:52:05;;;;;;;39.27;20.53;;;3.80;99.90;;;;;;4998657;28;20180;-86
2022/12/02 01:54:33;;;;;;;41.10;21.07;;;3.80;99.90;;;;;;5015897;28;20183;-86
2022/12/02 01:56:59;;;;;;;39.53;20.90;;;3.80;99.90;;;;;;5014145;28;20199;-86
2022/12/02 01:59:25;;;;;;;40.67;21.60;;;3.90;99.90;;;;;;4997947;28;20218;-86
2022/12/02 02:01:52;;;;;;;42.80;21.40;;;3.80;99.90;;;;;;4997975;28;20240;-86
2022/12/02 02:04:18;;;;;;;39.60;20.87;;;3.80;99.90;;;;;;5014405;28;20175;-86
2022/12/02 02:06:46;;;;;;;45.57;22.07;;;3.90;99.90;;;;;;4997998;28;20294;-86
2022/12/02 02:09:13;;;;;;;45.13;21.53;;;3.80;99.90;;;;;;4997392;28;20186;-86
2022/12/02 02:11:41;;;;;;;45.10;22.23;;;3.80;99.90;;;;;;4997886;28;20182;-86
2022/12/02 02:14:11;;;;;;;45.07;22.37;;;3.90;99.90;;;;;;4997691;28;20198;-86
2022/12/02 02:16:38;;;;;;;45.43;22.60;;;3.80;99.90;;;;;;4997396;28;20229;-87
2022/12/02 02:19:08;;;;;;;44.37;23.53;;;3.80;99.90;;;;;;4997968;28;20211;-86
2022/12/02 02:21:41;;;;;;;49.03;25.33;;;3.80;99.90;;;;;;5014462;28;20190;-86
2022/12/02 02:24:07;;;;;;;45.57;23.60;;;3.80;99.90;;;;;;5014058;28;20199;-86
2022/12/02 02:26:35;;;;;;;49.53;24.43;;;3.80;99.90;;;;;;5013830;28;20195;-86
2022/12/02 02:29:01;;;;;;;45.97;24.37;;;3.80;99.90;;;;;;5013845;28;20186;-86
2022/12/02 02:31:27;;;;;;;48.60;23.47;;;3.80;99.90;;;;;;5014043;28;20181;-86
2022/12/02 02:33:53;;;;;;;47.43;23.27;;;3.80;99.90;;;;;;4997694;28;20219;-86
2022/12/02 02:36:18;;;;;;;48.33;23.90;;;3.80;99.90;;;;;;5014027;28;20213;-86
2022/12/02 02:38:45;;;;;;;48.73;24.07;;;3.80;99.90;;;;;;4997076;28;20211;-86
2022/12/02 02:41:11;;;;;;;49.63;23.80;;;3.90;99.90;;;;;;5013678;28;20171;-86
2022/12/02 02:43:38;;;;;;;47.67;23.80;;;3.80;99.90;;;;;;4997295;28;20725;-87
2022/12/02 02:46:06;;;;;;;49.90;24.73;;;3.90;99.90;;;;;;5013584;28;20230;-86
2022/12/02 02:48:37;;;;;;;52.07;24.83;;;3.90;99.90;;;;;;5013692;28;20179;-86
2022/12/02 02:51:03;;;;;;;49.53;23.83;;;3.90;99.90;;;;;;4997281;28;20175;-86
2022/12/02 02:53:31;;;;;;;43.93;23.27;;;3.90;99.90;;;;;;4997312;28;20218;-86
2022/12/02 02:55:58;;;;;;;55.20;26.17;;;3.90;99.90;;;;;;4997055;28;20238;-86
2022/12/02 02:58:25;;;;;;;49.87;24.30;;;3.90;99.90;;;;;;5029513;28;20182;-86
2022/12/02 03:00:53;;;;;;;50.67;25.57;;;3.80;99.90;;;;;;4997053;28;20725;-86
2022/12/02 03:03:22;;;;;;;55.70;26.13;;;3.80;99.90;;;;;;5013549;28;20180;-86
2022/12/02 03:05:51;;;;;;;54.73;25.70;;;3.80;99.90;;;;;;5013257;28;20226;-86
2022/12/02 03:08:19;;;;;;;56.67;26.40;;;3.80;99.90;;;;;;4996948;28;20180;-86
2022/12/02 03:10:46;;;;;;;52.40;25.33;;;3.80;99.90;;;;;;5013115;28;20169;-86
2022/12/02 03:13:12;;;;;;;52.77;25.83;;;3.80;99.90;;;;;;4997015;28;20237;-86
2022/12/02 03:15:39;;;;;;;51.00;25.30;;;3.80;99.90;;;;;;4996852;28;20195;-86
2022/12/02 03:18:05;;;;;;;52.10;26.17;;;3.80;99.90;;;;;;4996233;28;20207;-86
2022/12/02 03:20:30;;;;;;;55.17;25.67;;;3.80;99.90;;;;;;4996839;28;20289;-86
2022/12/02 03:22:56;;;;;;;57.07;26.57;;;3.80;99.90;;;;;;4996761;28;20194;-86
2022/12/02 03:25:22;;;;;;;52.37;24.80;;;3.80;99.90;;;;;;4996255;28;20202;-86
2022/12/02 03:27:48;;;;;;;55.93;26.17;;;3.80;99.90;;;;;;5012437;28;20187;-86
2022/12/02 03:30:14;;;;;;;53.97;26.07;;;3.80;99.90;;;;;;5012718;28;20317;-86
2022/12/02 03:32:40;;;;;;;55.60;26.63;;;3.80;99.90;;;;;;4996246;28;20273;-86
2022/12/02 03:35:06;;;;;;;57.17;26.30;;;3.80;99.90;;;;;;4996337;28;20187;-86
2022/12/02 03:37:32;;;;;;;58.27;26.50;;;3.70;99.90;;;;;;4996120;28;20182;-86
2022/12/02 03:39:59;;;;;;;56.77;26.70;;;3.70;99.90;;;;;;4996088;28;20195;-86
2022/12/02 03:42:25;;;;;;;51.70;24.80;;;3.70;99.90;;;;;;5012449;28;20175;-86
2022/12/02 03:44:51;;;;;;;59.63;27.30;;;3.80;99.90;;;;;;5012644;28;20180;-86
2022/12/02 03:47:17;;;;;;;52.30;25.33;;;3.80;99.90;;;;;;5012021;28;20271;-87
2022/12/02 03:49:43;;;;;;;57.93;25.67;;;3.80;99.90;;;;;;4996137;28;20738;-87
2022/12/02 03:52:10;;;;;;;49.67;24.17;;;3.80;99.90;;;;;;5012443;28;20262;-86
2022/12/02 03:54:37;;;;;;;50.50;24.87;;;3.80;99.90;;;;;;5012258;28;20190;-86
2022/12/02 03:57:06;;;;;;;53.77;25.97;;;3.80;99.90;;;;;;5012277;28;20211;-86
2022/12/02 03:59:33;;;;;;;54.23;25.00;;;3.80;99.90;;;;;;5012065;28;20205;-86
2022/12/02 04:01:58;;;;;;;53.33;26.27;;;3.80;99.90;;;;;;5011895;28;20186;-86
2022/12/02 04:04:24;;;;;;;52.70;25.37;;;3.70;99.90;;;;;;4996115;28;20179;-86
2022/12/02 04:06:50;;;;;;;57.37;26.47;;;3.70;99.90;;;;;;4995547;28;20195;-86
2022/12/02 04:09:16;;;;;;;51.37;24.50;;;3.70;99.90;;;;;;5012419;28;20183;-86
2022/12/02 04:11:42;;;;;;;50.67;25.23;;;3.70;99.90;;;;;;4995513;28;20183;-86
2022/12/02 04:14:08;;;;;;;52.07;24.90;;;3.70;99.90;;;;;;4995626;28;20273;-86
2022/12/02 04:16:34;;;;;;;53.37;24.53;;;3.70;99.90;;;;;;4995709;28;20211;-86
2022/12/02 04:19:00;;;;;;;52.63;24.13;;;3.70;99.90;;;;;;4995611;28;20205;-86
2022/12/02 04:21:25;;;;;;;53.43;24.60;;;3.70;99.90;;;;;;4995285;28;20206;-86
2022/12/02 04:23:51;;;;;;;55.77;25.53;;;3.70;99.90;;;;;;4995428;28;20270;-86
2022/12/02 04:26:22;;;;;;;53.33;24.73;;;3.70;99.90;;;;;;4995233;28;20230;-87
2022/12/02 04:28:48;;;;;;;52.73;25.07;;;3.70;99.90;;;;;;4995720;28;20254;-86
2022/12/02 04:31:14;;;;;;;54.90;24.90;;;3.70;99.90;;;;;;5011484;28;20282;-86
2022/12/02 04:33:40;;;;;;;59.20;26.20;;;3.70;99.90;;;;;;5011701;28;20187;-86
2022/12/02 04:36:06;;;;;;;53.93;24.90;;;3.70;99.90;;;;;;4995420;28;20233;-86
2022/12/02 04:38:33;;;;;;;53.57;24.50;;;3.70;99.90;;;;;;5003717;28;20192;-86
2022/12/02 04:41:01;;;;;;;53.73;24.43;;;3.70;99.90;;;;;;4994903;28;20187;-87
2022/12/02 04:43:27;;;;;;;51.47;24.73;;;3.70;99.90;;;;;;4995201;28;20434;-87
2022/12/02 04:45:53;;;;;;;54.47;25.50;;;3.70;99.90;;;;;;4995192;28;20207;-87
2022/12/02 04:48:19;;;;;;;56.17;24.83;;;3.60;99.90;;;;;;4994874;28;20185;-87
2022/12/02 04:50:45;;;;;;;49.73;25.03;;;3.60;99.90;;;;;;4995031;28;20187;-87
2022/12/02 04:53:11;;;;;;;52.70;26.27;;;3.60;99.90;;;;;;4994908;28;20246;-87
2022/12/02 04:55:37;;;;;;;51.07;24.93;;;3.60;99.90;;;;;;4994371;28;20211;-87
2022/12/02 04:58:03;;;;;;;54.30;24.60;;;3.60;99.90;;;;;;5011188;28;20647;-87
2022/12/02 05:00:29;;;;;;;54.03;24.87;;;3.60;99.90;;;;;;4995457;28;20218;-87
2022/12/02 05:02:55;;;;;;;57.30;25.30;;;3.60;99.90;;;;;;4994702;28;20176;-87
2022/12/02 05:05:21;;;;;;;52.27;25.07;;;3.60;99.90;;;;;;5002580;28;20179;-87
2022/12/02 05:07:47;;;;;;;54.00;25.60;;;3.60;99.90;;;;;;5011423;28;20179;-87
2022/12/02 05:10:13;;;;;;;53.30;25.10;;;3.60;99.90;;;;;;4995331;28;20190;-87
2022/12/02 05:12:39;;;;;;;56.07;25.67;;;3.60;99.90;;;;;;5014089;28;20201;-87
2022/12/02 05:15:06;;;;;;;57.17;26.53;;;3.60;99.90;;;;;;4998062;28;20270;-87
2022/12/02 05:17:31;;;;;;;56.07;26.07;;;3.60;99.90;;;;;;5016451;28;20181;-87
2022/12/02 05:19:58;;;;;;;51.20;24.73;;;3.60;99.90;;;;;;5014895;28;20199;-88
2022/12/02 05:22:25;;;;;;;50.73;25.80;;;3.60;99.90;;;;;;4986505;28;20191;-88
2022/12/02 05:24:50;;;;;;;61.40;27.87;;;3.60;99.90;;;;;;4998796;28;20180;-87
2022/12/02 05:27:16;;;;;;;56.67;26.20;;;3.60;99.90;;;;;;5015227;28;20240;-86
2022/12/02 05:29:42;;;;;;;53.57;25.17;;;3.60;99.90;;;;;;4999550;28;20233;-85
2022/12/02 05:32:08;;;;;;;56.77;25.80;;;3.60;99.90;;;;;;5015362;28;20183;-86
2022/12/02 05:34:34;;;;;;;53.07;26.03;;;3.60;99.90;;;;;;4999367;28;20187;-86
2022/12/02 05:37:00;;;;;;;52.77;26.03;;;3.60;99.90;;;;;;5014942;28;20242;-86
2022/12/02 05:39:26;;;;;;;49.23;24.03;;;3.60;99.90;;;;;;4998963;28;20306;-86
2022/12/02 05:41:54;;;;;;;50.73;24.50;;;3.60;99.90;;;;;;4999175;28;20180;-86
2022/12/02 05:44:26;;;;;;;52.83;25.43;;;3.70;99.90;;;;;;5015188;28;20186;-86
2022/12/02 05:46:58;;;;;;;54.13;25.63;;;3.70;99.90;;;;;;4998480;28;20199;-86
2022/12/02 05:49:24;;;;;;;50.97;24.00;;;3.70;99.90;;;;;;4998621;28;20617;-86
2022/12/02 05:52:01;;;;;;;53.07;25.07;;;3.70;99.90;;;;;;4999259;28;20187;-86
2022/12/02 05:54:28;;;;;;;55.53;26.70;;;3.60;99.90;;;;;;4998556;28;20277;-86
2022/12/02 05:56:56;;;;;;;52.47;25.23;;;3.60;99.90;;;;;;4998658;28;20207;-85
2022/12/02 05:59:23;;;;;;;55.77;25.80;;;3.60;99.90;;;;;;5014667;28;20207;-86
2022/12/02 06:01:54;;;;;;;52.13;25.03;;;3.70;99.90;;;;;;5013886;28;20191;-86
2022/12/02 06:04:23;;;;;;;54.87;25.10;;;3.70;99.90;;;;;;5014534;28;20210;-87
2022/12/02 06:06:52;;;;;;;50.93;24.33;;;3.70;99.90;;;;;;4997880;28;20213;-87
2022/12/02 06:09:22;;;;;;;56.83;26.03;;;3.60;99.90;;;;;;4997914;28;20211;-87
2022/12/02 06:11:48;;;;;;;50.40;24.73;;;3.60;99.90;;;;;;4998622;28;20200;-86
2022/12/02 06:14:27;;;;;;;53.63;25.30;;;3.60;99.90;;;;;;5014827;28;20180;-86
2022/12/02 06:16:56;;;;;;;51.03;25.13;;;3.70;99.90;;;;;;5014655;28;20229;-86
2022/12/02 06:19:26;;;;;;;48.40;24.23;;;3.70;99.90;;;;;;4998423;28;20199;-86
2022/12/02 06:21:53;;;;;;;47.33;23.93;;;3.70;99.90;;;;;;4998205;28;20183;-86
2022/12/02 06:24:31;;;;;;;49.40;23.40;;;3.70;99.90;;;;;;5013663;28;20258;-87
2022/12/02 06:26:59;;;;;;;45.60;23.17;;;3.70;99.90;;;;;;4997662;28;20203;-87
2022/12/02 06:29:28;;;;;;;42.53;23.20;;;3.70;99.90;;;;;;5014234;28;20191;-87
2022/12/02 06:31:55;;;;;;;48.77;23.57;;;3.70;99.90;;;;;;5014551;28;20183;-87
2022/12/02 06:34:35;;;;;;;51.47;24.77;;;3.70;99.90;;;;;;5014449;28;20202;-87
2022/12/02 06:37:28;;;;;;;47.10;23.53;;;3.70;99.90;;;;;;4997856;28;20207;-87
2022/12/02 06:39:56;;;;;;;47.33;22.60;;;3.70;99.90;;;;;;5013576;28;20626;-87
2022/12/02 06:42:31;;;;;;;47.07;23.33;;;3.70;99.90;;;;;;5013794;28;20188;-86
2022/12/02 06:45:05;;;;;;;44.77;23.90;;;3.70;99.90;;;;;;5013674;28;20182;-87
2022/12/02 06:47:35;;;;;;;46.20;22.63;;;3.70;99.90;;;;;;5013289;28;20229;-87
2022/12/02 06:50:04;;;;;;;43.57;21.90;;;3.70;99.90;;;;;;5013410;28;20183;-87
2022/12/02 06:52:34;;;;;;;41.33;22.50;;;3.80;99.90;;;;;;5013433;28;20214;-87
2022/12/02 06:55:00;;;;;;;43.47;22.00;;;3.80;99.90;;;;;;5013480;28;20279;-86
2022/12/02 06:57:32;;;;;;;44.67;22.53;;;3.80;99.90;;;;;;4996565;28;20222;-86
2022/12/02 06:59:58;;;;;;;47.60;23.03;;;3.90;99.90;;;;;;4997053;28;20274;-87
2022/12/02 07:02:29;;;;;;;46.40;23.73;;;3.90;99.90;;;;;;4996941;28;20175;-87
2022/12/02 07:04:56;;;;;;;48.27;24.83;;;3.80;99.90;;;;;;5012747;28;20199;-85
2022/12/02 07:07:26;;;;;;;44.97;23.33;;;3.80;99.90;;;;;;4996490;28;20214;-86
2022/12/02 07:10:04;;;;;;;49.17;24.70;;;3.80;99.90;;;;;;4996801;28;20198;-87
2022/12/02 07:12:37;;;;;;;50.67;24.80;;;3.80;99.90;;;;;;5012770;28;20183;-87
2022/12/02 07:15:15;;;;;;;55.73;26.50;;;3.80;99.90;;;;;;5012467;28;20218;-86
2022/12/02 07:17:42;;;;;;;56.50;25.83;;;3.70;99.90;;;;;;5011554;28;20195;-86
2022/12/02 07:20:10;;;;;;;53.93;26.50;;;3.70;99.90;;;;;;4996045;28;20215;-87
2022/12/02 07:23:02;;;;;;;59.80;27.23;;;3.70;99.90;;;;;;5012930;28;20176;-85
2022/12/02 07:25:34;;;;;;;52.23;25.77;;;3.70;99.90;;;;;;4986103;28;20218;-86
2022/12/02 07:28:07;;;;;;;58.73;27.03;;;3.70;99.90;;;;;;5029175;28;20238;-87
2022/12/02 07:30:39;;;;;;;55.87;26.80;;;3.70;99.90;;;;;;4996737;28;20171;-86
2022/12/02 07:33:05;;;;;;;59.70;27.17;;;3.70;99.90;;;;;;4996529;28;20222;-86
2022/12/02 07:35:31;;;;;;;57.43;26.33;;;3.70;99.90;;;;;;4982890;28;20211;-87
2022/12/02 07:37:57;;;;;;;52.10;24.87;;;3.70;99.90;;;;;;5008996;28;20598;-85
2022/12/02 07:40:23;;;;;;;60.13;27.63;;;3.70;99.90;;;;;;4993031;28;20208;-85
2022/12/02 07:42:49;;;;;;;59.17;25.63;;;3.70;99.90;;;;;;4993288;28;20183;-85
2022/12/02 07:45:18;;;;;;;61.77;26.50;;;3.70;99.90;;;;;;4993090;28;20207;-85
2022/12/02 07:47:44;;;;;;;54.57;26.50;;;3.70;99.90;;;;;;4993863;28;20172;-85
2022/12/02 07:50:12;;;;;;;60.03;27.10;;;3.70;99.90;;;;;;5009458;28;20195;-84
2022/12/02 07:52:38;;;;;;;57.10;25.93;;;3.70;99.90;;;;;;4993057;28;20184;-85
2022/12/02 07:55:06;;;;;;;56.43;27.07;;;3.70;99.90;;;;;;4993371;28;20264;-85
2022/12/02 07:57:33;;;;;;;60.47;26.50;;;3.70;99.90;;;;;;5012586;28;20199;-85
2022/12/02 07:59:58;;;;;;;60.23;26.43;;;3.70;99.90;;;;;;5011922;28;20211;-85
2022/12/02 08:02:24;;;;;;;54.83;25.17;;;3.70;99.90;;;;;;5012286;28;20182;-85
2022/12/02 08:04:50;;;;;;;58.77;27.23;;;3.70;99.90;;;;;;5012484;28;20639;-85
2022/12/02 08:07:16;;;;;;;58.87;26.23;;;3.70;99.90;;;;;;5011898;28;20246;-85
2022/12/02 08:09:42;;;;;;;59.43;25.53;;;3.70;99.90;;;;;;5012179;28;20179;-85
2022/12/02 08:12:08;;;;;;;55.93;26.50;;;3.70;99.90;;;;;;5012624;28;20191;-87
2022/12/02 08:14:34;;;;;;;58.07;26.10;;;3.70;99.90;;;;;;5012396;28;20201;-85
2022/12/02 08:17:22;;;;;;;54.93;25.03;;;3.70;99.90;;;;;;5011685;28;20226;-85
2022/12/02 08:19:48;;;;;;;58.27;25.43;;;3.80;99.90;;;;;;4995392;28;20207;-86
2022/12/02 08:22:14;;;;;;;63.53;26.43;;;3.80;99.90;;;;;;5011848;28;20234;-85
2022/12/02 08:24:40;;;;;;;60.07;26.57;;;3.80;99.90;;;;;;4995217;28;20282;-85
2022/12/02 08:27:05;;;;;;;56.73;26.03;;;3.80;99.90;;;;;;4995305;28;20195;-86
2022/12/02 08:29:33;;;;;;;52.10;25.43;;;3.80;99.90;;;;;;4995594;28;20182;-86
2022/12/02 08:31:59;;;;;;;60.40;27.10;;;3.80;99.90;;;;;;5011826;28;20723;-86
2022/12/02 08:34:25;;;;;;;55.00;26.00;;;3.80;99.90;;;;;;4995502;28;20278;-85
2022/12/02 08:36:50;;;;;;;56.43;25.73;;;3.80;99.90;;;;;;5011641;28;20228;-86
2022/12/02 08:39:16;;;;;;;57.83;26.10;;;3.80;99.90;;;;;;5011747;28;20276;-85
2022/12/02 08:41:42;;;;;;;63.40;26.47;;;3.80;99.90;;;;;;5011795;28;20176;-86
2022/12/02 08:44:08;;;;;;;61.30;26.60;;;3.80;99.90;;;;;;5011551;28;20179;-85
2022/12/02 08:46:35;;;;;;;60.27;28.43;;;3.80;99.90;;;;;;5010576;28;20195;-85
2022/12/02 08:49:01;;;;;;;61.23;26.33;;;3.80;99.90;;;;;;5011215;28;20179;-85
2022/12/02 08:51:27;;;;;;;63.40;27.37;;;3.80;99.90;;;;;;4995110;28;20225;-85
2022/12/02 08:53:53;;;;;;;60.07;26.10;;;3.80;99.90;;;;;;4995226;28;20274;-86
2022/12/02 08:56:19;;;;;;;59.43;26.07;;;3.80;99.90;;;;;;5011469;28;20207;-85
2022/12/02 08:58:45;;;;;;;61.10;28.10;;;3.80;99.90;;;;;;5011442;28;20206;-85
2022/12/02 09:01:11;;;;;;;65.03;27.67;;;3.80;99.90;;;;;;5011451;28;20644;-85
2022/12/02 09:03:37;;;;;;;62.33;26.73;;;3.80;99.90;;;;;;4995079;28;20183;-85
2022/12/02 09:06:03;;;;;;;60.97;26.30;;;3.90;99.90;;;;;;5011598;28;20203;-88
2022/12/02 09:08:29;;;;;;;59.60;26.97;;;3.90;99.90;;;;;;4994754;28;20214;-85
2022/12/02 09:10:55;;;;;;;67.37;27.87;;;3.90;99.90;;;;;;4994807;28;20193;-86
2022/12/02 09:13:22;;;;;;;58.27;25.80;;;4.00;99.90;;;;;;4994842;28;20182;-86
2022/12/02 09:15:48;;;;;;;63.33;27.23;;;4.00;99.90;;;;;;5011511;28;20240;-85
2022/12/02 09:18:14;;;;;;;58.40;25.77;;;4.00;99.90;;;;;;4994800;28;20185;-85
2022/12/02 09:20:40;;;;;;;65.37;27.63;;;4.10;99.90;;;;;;5012458;28;20333;-86
2022/12/02 09:23:06;;;;;;;55.90;24.57;;;4.00;99.90;;;;;;5011456;28;20179;-86
2022/12/02 09:25:32;;;;;;;59.80;27.20;;;4.00;99.90;;;;;;4995341;28;20213;-85
2022/12/02 09:27:58;;;;;;;59.47;26.73;;;4.00;99.90;;;;;;5011104;28;20206;-86
2022/12/02 09:30:23;;;;;;;60.10;26.03;;;4.00;99.90;;;;;;4995109;28;20184;-84
2022/12/02 09:32:50;;;;;;;56.60;24.87;;;4.00;99.90;;;;;;4994900;28;20187;-86
2022/12/02 09:35:16;;;;;;;55.57;25.20;;;4.10;99.90;;;;;;5010788;28;20190;-86
2022/12/02 09:37:43;;;;;;;51.60;24.93;;;4.10;99.90;;;;;;5002245;28;20179;-86
2022/12/02 09:40:10;;;;;;;54.13;24.03;;;4.10;99.90;;;;;;5007169;28;20203;-87
2022/12/02 09:42:36;;;;;;;51.77;25.03;;;4.20;99.90;;;;;;5006366;28;20234;-86
2022/12/02 09:45:02;;;;;;;52.70;24.87;;;4.20;99.90;;;;;;4995108;28;20187;-86
2022/12/02 09:47:29;;;;;;;53.33;24.63;;;4.30;99.90;;;;;;5003299;28;20216;-86
2022/12/02 09:49:55;;;;;;;58.17;25.23;;;4.30;99.90;;;;;;5012021;28;20171;-86
2022/12/02 09:52:24;;;;;;;51.63;24.73;;;4.30;99.90;;;;;;4993984;28;20184;-86
2022/12/02 09:54:58;;;;;;;48.77;21.93;;;4.30;99.90;;;;;;5010893;28;20177;-85
2022/12/02 09:57:33;;;;;;;49.93;23.73;;;4.40;99.90;;;;;;5010987;28;20242;-86
2022/12/02 10:00:02;;;;;;;51.73;22.90;;;4.40;99.90;;;;;;4997271;28;20218;-86
2022/12/02 10:02:37;;;;;;;49.13;23.40;;;4.40;99.90;;;;;;5014881;28;20173;-85
2022/12/02 10:05:11;;;;;;;47.17;23.37;;;4.30;99.90;;;;;;5014393;28;20204;-86
2022/12/02 10:07:37;;;;;;;45.77;21.90;;;4.40;99.90;;;;;;5014359;28;20172;-86
2022/12/02 10:10:05;;;;;;;51.73;22.73;;;4.40;99.90;;;;;;4998191;28;20187;-86
2022/12/02 10:12:31;;;;;;;45.80;22.63;;;4.30;99.90;;;;;;4995630;28;20189;-86
2022/12/02 10:14:59;;;;;;;51.97;22.97;;;4.30;99.90;;;;;;5013050;28;20667;-86
2022/12/02 10:17:25;;;;;;;46.33;22.73;;;4.20;99.90;;;;;;4997408;28;20230;-86
2022/12/02 10:20:01;;;;;;;50.23;23.10;;;4.20;99.90;;;;;;4997928;28;20211;-86
2022/12/02 10:22:59;;;;;;;48.37;23.80;;;4.20;99.90;;;;;;4991000;28;20172;-86
2022/12/02 10:25:29;;;;;;;50.23;22.23;;;4.10;99.90;;;;;;4987988;28;20172;-86
2022/12/02 10:27:59;;;;;;;51.13;22.47;;;4.20;99.90;;;;;;4995542;28;20206;-86
2022/12/02 10:30:27;;;;;;;51.63;23.27;;;4.20;99.90;;;;;;5012210;28;20281;-86
2022/12/02 10:33:03;;;;;;;48.33;23.03;;;4.10;99.90;;;;;;5030507;28;20171;-86
2022/12/02 10:35:48;;;;;;;49.43;23.10;;;4.20;99.90;;;;;;5013020;28;20268;-86
2022/12/02 10:38:35;;;;;;;51.30;22.43;;;4.20;99.90;;;;;;5003638;28;20307;-86
2022/12/02 10:41:13;;;;;;;43.27;20.90;;;4.20;99.90;;;;;;5011310;28;20203;-86
2022/12/02 10:43:52;;;;;;;50.70;22.83;;;4.20;99.90;;;;;;5013747;28;20247;-86
2022/12/02 10:46:22;;;;;;;49.27;21.80;;;4.20;99.90;;;;;;4997622;28;20205;-86
2022/12/02 10:48:48;;;;;;;48.40;21.77;;;4.20;99.90;;;;;;4997704;28;20203;-86
2022/12/02 10:51:17;;;;;;;50.20;21.30;;;4.20;99.90;;;;;;4992885;28;20176;-86
2022/12/02 10:53:45;;;;;;;47.33;21.07;;;4.20;99.90;;;;;;4997876;28;20191;-86
2022/12/02 10:56:29;;;;;;;50.47;22.37;;;4.20;99.90;;;;;;4996934;28;20191;-86
2022/12/02 10:58:55;;;;;;;42.93;20.30;;;4.20;99.90;;;;;;4997441;28;20173;-86
2022/12/02 11:01:21;;;;;;;45.00;21.00;;;4.20;99.90;;;;;;4997864;28;20263;-86
2022/12/02 11:03:48;;;;;;;50.03;21.63;;;4.20;99.90;;;;;;4997341;28;20245;-87
2022/12/02 11:06:16;;;;;;;48.67;21.40;;;4.20;99.90;;;;;;5013118;28;20191;-86
2022/12/02 11:08:43;;;;;;;54.17;23.47;;;4.20;99.90;;;;;;5014604;28;20199;-86
2022/12/02 11:11:24;;;;;;;47.57;20.37;;;4.20;99.90;;;;;;5013480;28;20679;-86
2022/12/02 11:14:00;;;;;;;49.23;21.03;;;4.20;99.90;;;;;;5013146;28;20175;-86
2022/12/02 11:17:12;;;;;;;42.10;20.33;;;4.20;99.90;;;;;;4996383;28;20223;-86
2022/12/02 11:19:44;;;;;;;40.73;20.00;;;4.30;99.90;;;;;;5010312;28;20242;-86
2022/12/02 11:22:48;;;;;;;47.17;22.33;;;4.30;99.90;;;;;;5013419;28;20172;-86
2022/12/02 11:25:46;;;;;;;40.87;20.07;;;4.20;99.90;;;;;;5012871;28;20318;-86
2022/12/02 11:28:26;;;;;;;43.87;19.70;;;4.10;99.90;;;;;;5012870;28;20270;-86
2022/12/02 11:31:12;;;;;;;39.20;19.37;;;4.20;99.90;;;;;;4997071;28;20178;-85
2022/12/02 11:37:43;;;;;;;40.40;19.77;;;4.10;99.90;;;;;;4993221;28;20239;-86
2022/12/02 11:40:15;;;;;;;40.00;19.93;;;4.10;99.90;;;;;;4937225;29;20225;-86
2022/12/02 11:42:44;;;;;;;39.53;18.50;;;4.10;99.90;;;;;;4973695;28;20204;-86
2022/12/02 11:45:14;;;;;;;39.80;18.43;;;4.10;99.90;;;;;;4992858;28;20180;-86
2022/12/02 11:48:14;;;;;;;33.73;17.10;;;4.10;99.90;;;;;;5009070;28;20184;-86
2022/12/02 11:50:41;;;;;;;40.03;17.13;;;4.10;99.90;;;;;;5009297;28;20188;-86
2022/12/02 11:53:29;;;;;;;36.27;17.90;;;4.10;99.90;;;;;;4992966;28;20211;-86
2022/12/02 11:56:01;;;;;;;35.27;17.37;;;4.10;99.90;;;;;;4992754;28;20211;-86
2022/12/02 11:58:44;;;;;;;35.27;16.47;;;4.10;99.90;;;;;;4992595;28;20184;-86
2022/12/02 12:01:19;;;;;;;32.27;16.53;;;4.10;99.90;;;;;;5009444;28;20196;-86
2022/12/02 12:03:59;;;;;;;41.33;22.33;;;4.10;99.90;;;;;;4993137;28;20274;-86
2022/12/02 12:06:33;;;;;;;44.37;25.43;;;4.00;99.90;;;;;;4992803;28;20262;-86
2022/12/02 12:09:10;;;;;;;34.63;20.63;;;4.10;99.90;;;;;;4975918;28;20176;-86
2022/12/02 12:11:42;;;;;;;37.87;19.23;;;4.10;99.90;;;;;;4988450;28;20189;-86
2022/12/02 12:14:25;;;;;;;31.83;18.40;;;4.10;99.90;;;;;;5011049;28;20187;-86
2022/12/02 12:17:38;;;;;;;30.43;16.93;;;4.10;99.90;;;;;;4994678;28;20211;-86
2022/12/02 12:20:11;;;;;;;30.57;15.20;;;4.10;99.90;;;;;;4986006;28;20229;-86
2022/12/02 12:22:39;;;;;;;33.27;17.17;;;4.10;99.90;;;;;;5011488;28;20168;-86
2022/12/02 12:25:43;;;;;;;32.63;16.07;;;4.10;99.90;;;;;;5011854;28;20182;-86
2022/12/02 12:28:44;;;;;;;32.77;16.80;;;4.10;99.90;;;;;;5011575;28;20181;-86
2022/12/02 12:31:10;;;;;;;30.40;16.27;;;4.10;99.90;;;;;;4960663;28;20210;-86
2022/12/02 12:33:39;;;;;;;26.93;14.13;;;4.10;99.90;;;;;;5011583;28;20180;-86
2022/12/02 12:36:06;;;;;;;29.30;15.87;;;4.10;99.90;;;;;;4995139;28;20198;-86
2022/12/02 12:38:32;;;;;;;27.57;15.20;;;4.10;99.90;;;;;;4995691;28;20214;-86
2022/12/02 12:40:58;;;;;;;30.53;16.83;;;4.10;99.90;;;;;;5012871;28;20203;-86
2022/12/02 12:43:24;;;;;;;29.87;16.00;;;4.10;99.90;;;;;;4995068;28;20176;-86
2022/12/02 12:45:50;;;;;;;28.73;15.20;;;4.10;99.90;;;;;;5011774;28;20196;-86
2022/12/02 12:48:16;;;;;;;27.17;14.33;;;4.00;99.90;;;;;;5011846;28;20177;-86
2022/12/02 12:50:42;;;;;;;27.00;15.10;;;4.00;99.90;;;;;;5012014;28;20187;-86
2022/12/02 12:53:08;;;;;;;26.60;13.83;;;4.00;99.90;;;;;;5011650;28;20200;-86
2022/12/02 12:55:34;;;;;;;26.33;14.20;;;4.10;99.90;;;;;;5011838;28;20221;-86